sensor_id;sensor_type;location;lat;lon;timestamp;temperature;humidity
25128;DHT22;13107;51.304;6.866;2022-10-22T00:01:36;13.40;99.90
25128;DHT22;13107;51.304;6.866;2022-10-22T00:05:39;13.40;99.90
25128;DHT22;13107;51.304;6.866;2022-10-22T00:09:41;13.60;99.90
25128;DHT22;13107;51.304;6.866;2022-10-22T00:13:43;13.60;99.90
25128;DHT22;13107;51.304;6.866;2022-10-22T00:17:45;13.60;99.90
25128;DHT22;13107;51.304;6.866;2022-10-22T00:21:47;13.60;99.90
25128;DHT22;13107;51.304;6.866;2022-10-22T00:25:49;13.70;99.90
25128;DHT22;13107;51.304;6.866;2022-10-22T00:29:51;13.70;99.90
25128;DHT22;13107;51.304;6.866;2022-10-22T00:33:52;13.80;99.90
25128;DHT22;13107;51.304;6.866;2022-10-22T00:37:54;13.80;99.90
25128;DHT22;13107;51.304;6.866;2022-10-22T00:41:57;13.80;99.90
25128;DHT22;13107;51.304;6.866;2022-10-22T00:45:58;13.80;99.90
25128;DHT22;13107;51.304;6.866;2022-10-22T00:50:01;13.80;99.90
25128;DHT22;13107;51.304;6.866;2022-10-22T00:54:09;13.80;99.90
25128;DHT22;13107;51.304;6.866;2022-10-22T00:58:12;13.80;99.90
25128;DHT22;13107;51.304;6.866;2022-10-22T01:02:14;13.80;99.90
25128;DHT22;13107;51.304;6.866;2022-10-22T01:06:34;13.70;99.90
25128;DHT22;13107;51.304;6.866;2022-10-22T01:10:56;13.80;99.90
25128;DHT22;13107;51.304;6.866;2022-10-22T01:32:58;13.70;99.90
25128;DHT22;13107;51.304;6.866;2022-10-22T01:37:01;13.80;99.90
25128;DHT22;13107;51.304;6.866;2022-10-22T01:41:04;13.90;99.90
25128;DHT22;13107;51.304;6.866;2022-10-22T01:45:13;13.80;99.90
25128;DHT22;13107;51.304;6.866;2022-10-22T01:49:27;13.80;99.90
25128;DHT22;13107;51.304;6.866;2022-10-22T01:53:40;13.80;99.90
25128;DHT22;13107;51.304;6.866;2022-10-22T02:07:14;13.80;99.90
25128;DHT22;13107;51.304;6.866;2022-10-22T02:11:16;13.80;99.90
25128;DHT22;13107;51.304;6.866;2022-10-22T02:15:18;13.80;99.90
25128;DHT22;13107;51.304;6.866;2022-10-22T02:19:34;13.80;99.90
25128;DHT22;13107;51.304;6.866;2022-10-22T02:23:38;13.80;99.90
25128;DHT22;13107;51.304;6.866;2022-10-22T02:27:47;13.80;99.90
25128;DHT22;13107;51.304;6.866;2022-10-22T02:31:50;13.80;99.90
25128;DHT22;13107;51.304;6.866;2022-10-22T02:35:54;13.90;99.90
25128;DHT22;13107;51.304;6.866;2022-10-22T02:39:56;13.80;99.90
25128;DHT22;13107;51.304;6.866;2022-10-22T02:43:58;13.90;99.90
25128;DHT22;13107;51.304;6.866;2022-10-22T02:48:01;13.90;99.90
25128;DHT22;13107;51.304;6.866;2022-10-22T02:52:03;13.80;99.90
25128;DHT22;13107;51.304;6.866;2022-10-22T02:56:05;13.80;99.90
25128;DHT22;13107;51.304;6.866;2022-10-22T03:00:08;13.80;99.90
25128;DHT22;13107;51.304;6.866;2022-10-22T03:04:10;13.70;99.90
25128;DHT22;13107;51.304;6.866;2022-10-22T03:08:12;13.70;99.90
25128;DHT22;13107;51.304;6.866;2022-10-22T03:12:13;13.80;99.90
25128;DHT22;13107;51.304;6.866;2022-10-22T03:16:15;13.70;99.90
25128;DHT22;13107;51.304;6.866;2022-10-22T03:20:17;13.60;99.90
25128;DHT22;13107;51.304;6.866;2022-10-22T03:24:23;13.60;99.90
25128;DHT22;13107;51.304;6.866;2022-10-22T03:28:25;13.50;99.90
25128;DHT22;13107;51.304;6.866;2022-10-22T03:32:27;13.50;99.90
25128;DHT22;13107;51.304;6.866;2022-10-22T03:36:30;13.50;99.90
25128;DHT22;13107;51.304;6.866;2022-10-22T03:40:32;13.40;99.90
25128;DHT22;13107;51.304;6.866;2022-10-22T03:44:35;13.40;99.90
25128;DHT22;13107;51.304;6.866;2022-10-22T03:48:38;13.40;99.90
25128;DHT22;13107;51.304;6.866;2022-10-22T03:52:40;13.50;99.90
25128;DHT22;13107;51.304;6.866;2022-10-22T03:56:41;13.40;99.90
25128;DHT22;13107;51.304;6.866;2022-10-22T04:00:43;13.30;99.90
25128;DHT22;13107;51.304;6.866;2022-10-22T04:04:45;13.30;99.90
25128;DHT22;13107;51.304;6.866;2022-10-22T04:08:47;13.30;99.90
25128;DHT22;13107;51.304;6.866;2022-10-22T04:12:49;13.30;99.90
25128;DHT22;13107;51.304;6.866;2022-10-22T04:16:50;13.40;99.90
25128;DHT22;13107;51.304;6.866;2022-10-22T04:20:52;13.40;99.90
25128;DHT22;13107;51.304;6.866;2022-10-22T04:24:54;13.40;99.90
25128;DHT22;13107;51.304;6.866;2022-10-22T04:28:56;13.40;99.90
25128;DHT22;13107;51.304;6.866;2022-10-22T04:32:57;13.40;99.90
25128;DHT22;13107;51.304;6.866;2022-10-22T04:36:59;13.40;99.90
25128;DHT22;13107;51.304;6.866;2022-10-22T04:41:08;13.30;99.90
25128;DHT22;13107;51.304;6.866;2022-10-22T04:45:10;13.40;99.90
25128;DHT22;13107;51.304;6.866;2022-10-22T04:49:12;13.40;99.90
25128;DHT22;13107;51.304;6.866;2022-10-22T04:53:13;13.40;99.90
25128;DHT22;13107;51.304;6.866;2022-10-22T04:57:15;13.30;99.90
25128;DHT22;13107;51.304;6.866;2022-10-22T05:01:22;13.30;99.90
25128;DHT22;13107;51.304;6.866;2022-10-22T05:05:24;13.20;99.90
25128;DHT22;13107;51.304;6.866;2022-10-22T05:09:26;13.20;99.90
25128;DHT22;13107;51.304;6.866;2022-10-22T05:13:28;13.10;99.90
25128;DHT22;13107;51.304;6.866;2022-10-22T05:17:30;13.10;99.90
25128;DHT22;13107;51.304;6.866;2022-10-22T05:21:32;13.00;99.90
25128;DHT22;13107;51.304;6.866;2022-10-22T05:25:40;13.10;99.90
25128;DHT22;13107;51.304;6.866;2022-10-22T05:29:41;13.00;99.90
25128;DHT22;13107;51.304;6.866;2022-10-22T05:33:44;12.90;99.90
25128;DHT22;13107;51.304;6.866;2022-10-22T05:37:46;12.80;99.90
25128;DHT22;13107;51.304;6.866;2022-10-22T05:41:47;12.80;99.90
25128;DHT22;13107;51.304;6.866;2022-10-22T05:45:49;12.70;99.90
25128;DHT22;13107;51.304;6.866;2022-10-22T05:49:51;12.70;99.90
25128;DHT22;13107;51.304;6.866;2022-10-22T05:53:55;12.70;99.90
25128;DHT22;13107;51.304;6.866;2022-10-22T05:57:57;12.70;99.90
25128;DHT22;13107;51.304;6.866;2022-10-22T06:01:59;12.80;99.90
25128;DHT22;13107;51.304;6.866;2022-10-22T06:06:04;12.90;99.90
25128;DHT22;13107;51.304;6.866;2022-10-22T06:10:12;12.80;99.90
25128;DHT22;13107;51.304;6.866;2022-10-22T06:14:15;12.90;99.90
25128;DHT22;13107;51.304;6.866;2022-10-22T06:18:17;12.80;99.90
25128;DHT22;13107;51.304;6.866;2022-10-22T06:22:19;12.90;99.90
25128;DHT22;13107;51.304;6.866;2022-10-22T06:26:21;12.90;99.90
25128;DHT22;13107;51.304;6.866;2022-10-22T06:30:23;13.00;99.90
25128;DHT22;13107;51.304;6.866;2022-10-22T06:34:24;13.00;99.90
25128;DHT22;13107;51.304;6.866;2022-10-22T06:38:26;13.10;99.90
25128;DHT22;13107;51.304;6.866;2022-10-22T06:42:28;13.10;99.90
25128;DHT22;13107;51.304;6.866;2022-10-22T06:46:29;13.10;99.90
25128;DHT22;13107;51.304;6.866;2022-10-22T06:50:35;13.10;99.90
25128;DHT22;13107;51.304;6.866;2022-10-22T06:54:37;13.20;99.90
25128;DHT22;13107;51.304;6.866;2022-10-22T06:58:39;13.20;99.90
25128;DHT22;13107;51.304;6.866;2022-10-22T07:02:40;13.30;99.90
25128;DHT22;13107;51.304;6.866;2022-10-22T07:06:43;13.40;99.90
25128;DHT22;13107;51.304;6.866;2022-10-22T07:10:44;13.50;99.90
25128;DHT22;13107;51.304;6.866;2022-10-22T07:14:48;13.80;99.90
25128;DHT22;13107;51.304;6.866;2022-10-22T07:18:50;13.90;99.90
25128;DHT22;13107;51.304;6.866;2022-10-22T07:22:51;14.00;99.90
25128;DHT22;13107;51.304;6.866;2022-10-22T07:26:53;14.20;99.90
25128;DHT22;13107;51.304;6.866;2022-10-22T07:30:55;14.20;99.90
25128;DHT22;13107;51.304;6.866;2022-10-22T07:34:57;14.40;99.90
25128;DHT22;13107;51.304;6.866;2022-10-22T07:38:59;14.50;99.90
25128;DHT22;13107;51.304;6.866;2022-10-22T07:43:02;14.50;99.90
25128;DHT22;13107;51.304;6.866;2022-10-22T07:47:04;14.60;99.90
25128;DHT22;13107;51.304;6.866;2022-10-22T07:51:06;14.70;99.90
25128;DHT22;13107;51.304;6.866;2022-10-22T07:55:08;14.80;99.90
25128;DHT22;13107;51.304;6.866;2022-10-22T07:59:10;15.00;99.90
25128;DHT22;13107;51.304;6.866;2022-10-22T08:03:12;15.20;99.90
25128;DHT22;13107;51.304;6.866;2022-10-22T08:07:14;15.20;99.90
25128;DHT22;13107;51.304;6.866;2022-10-22T08:11:16;15.30;99.90
25128;DHT22;13107;51.304;6.866;2022-10-22T08:15:17;15.30;99.90
25128;DHT22;13107;51.304;6.866;2022-10-22T08:19:19;15.40;99.90
25128;DHT22;13107;51.304;6.866;2022-10-22T08:23:21;15.30;99.90
25128;DHT22;13107;51.304;6.866;2022-10-22T08:27:28;15.40;99.90
25128;DHT22;13107;51.304;6.866;2022-10-22T08:31:30;15.30;99.90
25128;DHT22;13107;51.304;6.866;2022-10-22T08:35:32;15.30;99.90
25128;DHT22;13107;51.304;6.866;2022-10-22T08:39:34;15.30;99.90
25128;DHT22;13107;51.304;6.866;2022-10-22T08:43:46;15.40;99.90
25128;DHT22;13107;51.304;6.866;2022-10-22T08:52:04;15.50;99.90
25128;DHT22;13107;51.304;6.866;2022-10-22T08:56:06;15.50;99.90
25128;DHT22;13107;51.304;6.866;2022-10-22T09:00:15;15.60;99.90
25128;DHT22;13107;51.304;6.866;2022-10-22T09:08:26;15.80;99.90
25128;DHT22;13107;51.304;6.866;2022-10-22T09:12:27;15.90;99.90
25128;DHT22;13107;51.304;6.866;2022-10-22T09:16:46;16.00;99.90
25128;DHT22;13107;51.304;6.866;2022-10-22T09:20:55;16.00;99.90
25128;DHT22;13107;51.304;6.866;2022-10-22T09:29:18;16.30;99.90
25128;DHT22;13107;51.304;6.866;2022-10-22T09:33:27;16.20;99.90
25128;DHT22;13107;51.304;6.866;2022-10-22T09:37:31;16.20;99.90
25128;DHT22;13107;51.304;6.866;2022-10-22T09:41:32;16.10;99.90
25128;DHT22;13107;51.304;6.866;2022-10-22T09:45:34;16.10;99.90
25128;DHT22;13107;51.304;6.866;2022-10-22T09:49:36;16.20;99.90
25128;DHT22;13107;51.304;6.866;2022-10-22T09:53:41;16.20;99.90
25128;DHT22;13107;51.304;6.866;2022-10-22T09:57:52;16.10;99.90
25128;DHT22;13107;51.304;6.866;2022-10-22T10:01:59;16.00;99.90
25128;DHT22;13107;51.304;6.866;2022-10-22T10:06:22;16.10;99.90
25128;DHT22;13107;51.304;6.866;2022-10-22T10:18:52;16.50;99.90
25128;DHT22;13107;51.304;6.866;2022-10-22T10:22:58;16.50;99.90
25128;DHT22;13107;51.304;6.866;2022-10-22T10:56:38;17.00;99.90
25128;DHT22;13107;51.304;6.866;2022-10-22T11:00:49;16.90;99.90
25128;DHT22;13107;51.304;6.866;2022-10-22T11:14:20;17.30;99.90
25128;DHT22;13107;51.304;6.866;2022-10-22T11:18:36;17.20;99.90
25128;DHT22;13107;51.304;6.866;2022-10-22T11:22:42;17.10;99.90
25128;DHT22;13107;51.304;6.866;2022-10-22T11:31:38;17.00;99.90
25128;DHT22;13107;51.304;6.866;2022-10-22T11:35:43;17.00;99.90
25128;DHT22;13107;51.304;6.866;2022-10-22T11:39:56;17.00;99.90
25128;DHT22;13107;51.304;6.866;2022-10-22T11:44:10;17.00;99.90
25128;DHT22;13107;51.304;6.866;2022-10-22T11:48:16;17.00;99.90
25128;DHT22;13107;51.304;6.866;2022-10-22T11:52:23;16.90;99.90
25128;DHT22;13107;51.304;6.866;2022-10-22T11:56:26;16.90;99.90
25128;DHT22;13107;51.304;6.866;2022-10-22T12:00:39;16.90;99.90
25128;DHT22;13107;51.304;6.866;2022-10-22T12:04:41;16.90;99.90
25128;DHT22;13107;51.304;6.866;2022-10-22T12:13:20;17.00;99.90
25128;DHT22;13107;51.304;6.866;2022-10-22T12:17:23;17.00;99.90
25128;DHT22;13107;51.304;6.866;2022-10-22T12:21:25;17.10;99.90
25128;DHT22;13107;51.304;6.866;2022-10-22T12:25:30;17.20;99.90
25128;DHT22;13107;51.304;6.866;2022-10-22T12:29:36;17.30;99.90
25128;DHT22;13107;51.304;6.866;2022-10-22T12:33:38;17.30;99.90
25128;DHT22;13107;51.304;6.866;2022-10-22T12:37:39;17.20;99.90
25128;DHT22;13107;51.304;6.866;2022-10-22T12:41:42;17.20;99.90
25128;DHT22;13107;51.304;6.866;2022-10-22T12:45:46;17.10;99.90
25128;DHT22;13107;51.304;6.866;2022-10-22T12:49:49;17.10;99.90
25128;DHT22;13107;51.304;6.866;2022-10-22T12:53:52;17.10;99.90
25128;DHT22;13107;51.304;6.866;2022-10-22T12:57:55;17.10;99.90
25128;DHT22;13107;51.304;6.866;2022-10-22T13:01:56;17.20;99.90
25128;DHT22;13107;51.304;6.866;2022-10-22T13:10:26;17.40;99.90
25128;DHT22;13107;51.304;6.866;2022-10-22T13:14:37;17.40;99.90
25128;DHT22;13107;51.304;6.866;2022-10-22T13:18:39;17.30;99.90
25128;DHT22;13107;51.304;6.866;2022-10-22T13:23:17;17.40;99.90
25128;DHT22;13107;51.304;6.866;2022-10-22T13:27:20;17.50;99.90
25128;DHT22;13107;51.304;6.866;2022-10-22T13:31:25;17.50;99.90
25128;DHT22;13107;51.304;6.866;2022-10-22T13:35:30;17.40;99.90
25128;DHT22;13107;51.304;6.866;2022-10-22T13:39:33;17.40;99.90
25128;DHT22;13107;51.304;6.866;2022-10-22T13:43:35;17.40;99.90
25128;DHT22;13107;51.304;6.866;2022-10-22T13:47:37;17.40;99.90
25128;DHT22;13107;51.304;6.866;2022-10-22T13:51:39;17.30;99.90
25128;DHT22;13107;51.304;6.866;2022-10-22T13:55:40;17.20;99.90
25128;DHT22;13107;51.304;6.866;2022-10-22T13:59:42;17.10;99.90
25128;DHT22;13107;51.304;6.866;2022-10-22T14:03:44;17.00;99.90
25128;DHT22;13107;51.304;6.866;2022-10-22T14:07:47;17.10;99.90
25128;DHT22;13107;51.304;6.866;2022-10-22T14:11:49;17.10;99.90
25128;DHT22;13107;51.304;6.866;2022-10-22T14:15:51;17.10;99.90
25128;DHT22;13107;51.304;6.866;2022-10-22T14:19:53;16.90;99.90
25128;DHT22;13107;51.304;6.866;2022-10-22T14:23:55;16.90;99.90
25128;DHT22;13107;51.304;6.866;2022-10-22T14:27:56;16.80;99.90
25128;DHT22;13107;51.304;6.866;2022-10-22T14:31:58;16.80;99.90
25128;DHT22;13107;51.304;6.866;2022-10-22T14:36:00;16.80;99.90
25128;DHT22;13107;51.304;6.866;2022-10-22T14:40:02;16.90;99.90
25128;DHT22;13107;51.304;6.866;2022-10-22T14:44:04;16.80;99.90
25128;DHT22;13107;51.304;6.866;2022-10-22T14:48:05;16.80;99.90
25128;DHT22;13107;51.304;6.866;2022-10-22T14:52:07;16.70;99.90
25128;DHT22;13107;51.304;6.866;2022-10-22T14:56:15;16.60;99.90
25128;DHT22;13107;51.304;6.866;2022-10-22T15:00:18;16.50;99.90
25128;DHT22;13107;51.304;6.866;2022-10-22T15:04:21;16.50;99.90
25128;DHT22;13107;51.304;6.866;2022-10-22T15:08:23;16.60;99.90
25128;DHT22;13107;51.304;6.866;2022-10-22T15:12:24;16.70;99.90
25128;DHT22;13107;51.304;6.866;2022-10-22T15:16:26;16.70;99.90
25128;DHT22;13107;51.304;6.866;2022-10-22T15:20:28;16.90;99.90
25128;DHT22;13107;51.304;6.866;2022-10-22T15:24:30;16.90;99.90
25128;DHT22;13107;51.304;6.866;2022-10-22T15:28:31;17.00;99.90
25128;DHT22;13107;51.304;6.866;2022-10-22T15:32:33;16.90;99.90
25128;DHT22;13107;51.304;6.866;2022-10-22T15:36:35;16.70;99.90
25128;DHT22;13107;51.304;6.866;2022-10-22T15:40:37;16.60;99.90
25128;DHT22;13107;51.304;6.866;2022-10-22T15:44:39;16.50;99.90
25128;DHT22;13107;51.304;6.866;2022-10-22T15:48:41;16.40;99.90
25128;DHT22;13107;51.304;6.866;2022-10-22T15:52:43;16.20;99.90
25128;DHT22;13107;51.304;6.866;2022-10-22T15:56:45;16.00;99.90
25128;DHT22;13107;51.304;6.866;2022-10-22T16:00:47;15.80;99.90
25128;DHT22;13107;51.304;6.866;2022-10-22T16:04:49;15.60;99.90
25128;DHT22;13107;51.304;6.866;2022-10-22T16:08:51;15.40;99.90
25128;DHT22;13107;51.304;6.866;2022-10-22T16:12:55;15.40;99.90
25128;DHT22;13107;51.304;6.866;2022-10-22T16:16:57;15.30;99.90
25128;DHT22;13107;51.304;6.866;2022-10-22T16:21:00;15.10;99.90
25128;DHT22;13107;51.304;6.866;2022-10-22T16:25:01;14.90;99.90
25128;DHT22;13107;51.304;6.866;2022-10-22T16:29:04;14.70;99.90
25128;DHT22;13107;51.304;6.866;2022-10-22T16:33:07;14.40;99.90
25128;DHT22;13107;51.304;6.866;2022-10-22T16:37:09;14.20;99.90
25128;DHT22;13107;51.304;6.866;2022-10-22T16:41:19;14.00;99.90
25128;DHT22;13107;51.304;6.866;2022-10-22T16:45:21;13.80;99.90
25128;DHT22;13107;51.304;6.866;2022-10-22T16:49:23;13.70;99.90
25128;DHT22;13107;51.304;6.866;2022-10-22T16:53:25;13.50;99.90
25128;DHT22;13107;51.304;6.866;2022-10-22T16:57:27;13.40;99.90
25128;DHT22;13107;51.304;6.866;2022-10-22T17:01:29;13.30;99.90
25128;DHT22;13107;51.304;6.866;2022-10-22T17:05:31;13.10;99.90
25128;DHT22;13107;51.304;6.866;2022-10-22T17:09:35;13.00;99.90
25128;DHT22;13107;51.304;6.866;2022-10-22T17:13:39;12.80;99.90
25128;DHT22;13107;51.304;6.866;2022-10-22T17:17:41;12.70;99.90
25128;DHT22;13107;51.304;6.866;2022-10-22T17:21:43;12.60;99.90
25128;DHT22;13107;51.304;6.866;2022-10-22T17:25:44;12.50;99.90
25128;DHT22;13107;51.304;6.866;2022-10-22T17:29:46;12.40;99.90
25128;DHT22;13107;51.304;6.866;2022-10-22T17:33:50;12.40;99.90
25128;DHT22;13107;51.304;6.866;2022-10-22T17:37:52;12.20;99.90
25128;DHT22;13107;51.304;6.866;2022-10-22T17:41:54;12.10;99.90
25128;DHT22;13107;51.304;6.866;2022-10-22T17:46:06;12.00;99.90
25128;DHT22;13107;51.304;6.866;2022-10-22T17:50:08;12.00;99.90
25128;DHT22;13107;51.304;6.866;2022-10-22T17:54:11;12.00;99.90
25128;DHT22;13107;51.304;6.866;2022-10-22T17:58:13;12.00;99.90
25128;DHT22;13107;51.304;6.866;2022-10-22T18:02:16;12.00;99.90
25128;DHT22;13107;51.304;6.866;2022-10-22T18:06:18;11.90;99.90
25128;DHT22;13107;51.304;6.866;2022-10-22T18:10:20;11.90;99.90
25128;DHT22;13107;51.304;6.866;2022-10-22T18:14:22;11.70;99.90
25128;DHT22;13107;51.304;6.866;2022-10-22T18:18:24;11.70;99.90
25128;DHT22;13107;51.304;6.866;2022-10-22T18:22:26;11.70;99.90
25128;DHT22;13107;51.304;6.866;2022-10-22T18:26:27;11.70;99.90
25128;DHT22;13107;51.304;6.866;2022-10-22T18:30:29;11.60;99.90
25128;DHT22;13107;51.304;6.866;2022-10-22T18:34:34;11.50;99.90
25128;DHT22;13107;51.304;6.866;2022-10-22T18:38:37;11.40;99.90
25128;DHT22;13107;51.304;6.866;2022-10-22T18:42:39;11.40;99.90
25128;DHT22;13107;51.304;6.866;2022-10-22T18:46:42;11.30;99.90
25128;DHT22;13107;51.304;6.866;2022-10-22T18:50:44;11.20;99.90
25128;DHT22;13107;51.304;6.866;2022-10-22T18:54:45;11.20;99.90
25128;DHT22;13107;51.304;6.866;2022-10-22T18:58:48;11.20;99.90
25128;DHT22;13107;51.304;6.866;2022-10-22T19:02:50;11.10;99.90
25128;DHT22;13107;51.304;6.866;2022-10-22T19:06:51;11.10;99.90
25128;DHT22;13107;51.304;6.866;2022-10-22T19:10:53;11.00;99.90
25128;DHT22;13107;51.304;6.866;2022-10-22T19:14:55;11.00;99.90
25128;DHT22;13107;51.304;6.866;2022-10-22T19:19:02;11.00;99.90
25128;DHT22;13107;51.304;6.866;2022-10-22T19:23:04;10.90;99.90
25128;DHT22;13107;51.304;6.866;2022-10-22T19:27:06;10.90;99.90
25128;DHT22;13107;51.304;6.866;2022-10-22T19:31:11;10.90;99.90
25128;DHT22;13107;51.304;6.866;2022-10-22T19:35:14;10.90;99.90
25128;DHT22;13107;51.304;6.866;2022-10-22T19:39:16;10.80;99.90
25128;DHT22;13107;51.304;6.866;2022-10-22T19:43:18;10.80;99.90
25128;DHT22;13107;51.304;6.866;2022-10-22T19:47:19;10.80;99.90
25128;DHT22;13107;51.304;6.866;2022-10-22T19:51:25;10.70;99.90
25128;DHT22;13107;51.304;6.866;2022-10-22T19:55:27;10.70;99.90
25128;DHT22;13107;51.304;6.866;2022-10-22T19:59:29;10.70;99.90
25128;DHT22;13107;51.304;6.866;2022-10-22T20:03:33;10.60;99.90
25128;DHT22;13107;51.304;6.866;2022-10-22T20:07:36;10.60;99.90
25128;DHT22;13107;51.304;6.866;2022-10-22T20:11:38;10.60;99.90
25128;DHT22;13107;51.304;6.866;2022-10-22T20:15:40;10.60;99.90
25128;DHT22;13107;51.304;6.866;2022-10-22T20:19:42;10.60;99.90
25128;DHT22;13107;51.304;6.866;2022-10-22T20:23:45;10.60;99.90
25128;DHT22;13107;51.304;6.866;2022-10-22T20:27:46;10.60;99.90
25128;DHT22;13107;51.304;6.866;2022-10-22T20:31:48;10.60;99.90
25128;DHT22;13107;51.304;6.866;2022-10-22T20:35:58;10.60;99.90
25128;DHT22;13107;51.304;6.866;2022-10-22T20:40:00;10.60;99.90
25128;DHT22;13107;51.304;6.866;2022-10-22T20:44:02;10.70;99.90
25128;DHT22;13107;51.304;6.866;2022-10-22T20:48:04;10.80;99.90
25128;DHT22;13107;51.304;6.866;2022-10-22T20:52:07;10.90;99.90
25128;DHT22;13107;51.304;6.866;2022-10-22T20:56:08;11.00;99.90
25128;DHT22;13107;51.304;6.866;2022-10-22T21:00:12;11.10;99.90
25128;DHT22;13107;51.304;6.866;2022-10-22T21:04:14;11.20;99.90
25128;DHT22;13107;51.304;6.866;2022-10-22T21:08:16;11.30;99.90
25128;DHT22;13107;51.304;6.866;2022-10-22T21:12:18;11.40;99.90
25128;DHT22;13107;51.304;6.866;2022-10-22T21:16:20;11.40;99.90
25128;DHT22;13107;51.304;6.866;2022-10-22T21:20:21;11.60;99.90
25128;DHT22;13107;51.304;6.866;2022-10-22T21:24:25;11.70;99.90
25128;DHT22;13107;51.304;6.866;2022-10-22T21:28:27;11.90;99.90
25128;DHT22;13107;51.304;6.866;2022-10-22T21:32:34;12.00;99.90
25128;DHT22;13107;51.304;6.866;2022-10-22T21:36:36;12.10;99.90
25128;DHT22;13107;51.304;6.866;2022-10-22T21:40:37;12.10;99.90
25128;DHT22;13107;51.304;6.866;2022-10-22T21:44:39;12.20;99.90
25128;DHT22;13107;51.304;6.866;2022-10-22T21:48:41;12.30;99.90
25128;DHT22;13107;51.304;6.866;2022-10-22T21:52:43;12.40;99.90
25128;DHT22;13107;51.304;6.866;2022-10-22T21:56:45;12.50;99.90
25128;DHT22;13107;51.304;6.866;2022-10-22T22:00:52;12.50;99.90
25128;DHT22;13107;51.304;6.866;2022-10-22T22:04:54;12.50;99.90
25128;DHT22;13107;51.304;6.866;2022-10-22T22:08:56;12.60;99.90
25128;DHT22;13107;51.304;6.866;2022-10-22T22:12:58;12.50;99.90
25128;DHT22;13107;51.304;6.866;2022-10-22T22:17:00;12.60;99.90
25128;DHT22;13107;51.304;6.866;2022-10-22T22:21:04;12.60;99.90
25128;DHT22;13107;51.304;6.866;2022-10-22T22:25:07;12.70;99.90
25128;DHT22;13107;51.304;6.866;2022-10-22T22:29:09;12.70;99.90
25128;DHT22;13107;51.304;6.866;2022-10-22T22:33:11;12.70;99.90
25128;DHT22;13107;51.304;6.866;2022-10-22T22:37:13;12.70;99.90
25128;DHT22;13107;51.304;6.866;2022-10-22T22:41:14;12.70;99.90
25128;DHT22;13107;51.304;6.866;2022-10-22T22:45:16;12.70;99.90
25128;DHT22;13107;51.304;6.866;2022-10-22T22:49:18;12.70;99.90
25128;DHT22;13107;51.304;6.866;2022-10-22T22:53:20;12.70;99.90
25128;DHT22;13107;51.304;6.866;2022-10-22T22:57:21;12.60;99.90
25128;DHT22;13107;51.304;6.866;2022-10-22T23:01:29;12.70;99.90
25128;DHT22;13107;51.304;6.866;2022-10-22T23:05:31;12.60;99.90
25128;DHT22;13107;51.304;6.866;2022-10-22T23:09:32;12.60;99.90
25128;DHT22;13107;51.304;6.866;2022-10-22T23:13:35;12.60;99.90
25128;DHT22;13107;51.304;6.866;2022-10-22T23:17:37;12.60;99.90
25128;DHT22;13107;51.304;6.866;2022-10-22T23:21:44;12.60;99.90
25128;DHT22;13107;51.304;6.866;2022-10-22T23:25:46;12.60;99.90
25128;DHT22;13107;51.304;6.866;2022-10-22T23:29:48;12.70;99.90
25128;DHT22;13107;51.304;6.866;2022-10-22T23:33:49;12.70;99.90
25128;DHT22;13107;51.304;6.866;2022-10-22T23:37:51;12.70;99.90
25128;DHT22;13107;51.304;6.866;2022-10-22T23:41:53;12.60;99.90
25128;DHT22;13107;51.304;6.866;2022-10-22T23:45:55;12.60;99.90
25128;DHT22;13107;51.304;6.866;2022-10-22T23:49:57;12.60;99.90
25128;DHT22;13107;51.304;6.866;2022-10-22T23:54:02;12.50;99.90
25128;DHT22;13107;51.304;6.866;2022-10-22T23:58:04;12.40;99.90
